Terminal Aerodrome Forecast
Issued by NWS

Home | Current Version | Previous Version | Text Only | Print | Product List | Glossary On
Versions: 1 2 3 4 5 6 7 8 9 10 11 12 13 14 15 16 17 18
000
FTUS43 KLSX 152300
TAFUIN
TAF
KUIN 152336Z 1600/1624 34008KT P6SM SCT027
      TEMPO 1600/1602 BKN025
     FM160700 VRB03KT 3SM BR SKC
     FM161400 36004KT P6SM SKC=

USA.gov is the U.S. government's official web portal to all federal, state and local government web resources and services.